Time;durP1;ratioP1;P1;durP2;ratioP2;P2;SDS_P1;SDS_P2;PMS_P1;PMS_P2;Temp;Humidity;BMP_temperature;BMP_pressure;BME280_temperature;BME280_humidity;BME280_pressure;Samples;Min_cycle;Max_cycle;Signal;HPM_P1;HPM_P2
2022/09/15 00:02:06;;;;;;;6.65;1.25;;;16.10;99.90;;;;;;5054438;28;20129;-69
2022/09/15 00:04:32;;;;;;;1.30;0.80;;;16.20;99.90;;;;;;5054513;28;20045;-68
2022/09/15 00:06:57;;;;;;;3.33;1.27;;;16.30;99.90;;;;;;5069307;28;20045;-78
2022/09/15 00:09:23;;;;;;;3.65;1.20;;;16.40;99.90;;;;;;5054411;28;20136;-66
2022/09/15 00:11:49;;;;;;;2.20;1.20;;;16.60;99.90;;;;;;5069599;28;20047;-66
2022/09/15 00:14:15;;;;;;;5.28;2.00;;;16.60;99.90;;;;;;5052786;28;20052;-65
2022/09/15 00:16:41;;;;;;;7.07;1.80;;;16.60;99.90;;;;;;5069994;28;20037;-66
2022/09/15 00:19:06;;;;;;;4.90;1.90;;;16.50;99.90;;;;;;5069639;28;20500;-66
2022/09/15 00:21:34;;;;;;;5.43;2.13;;;16.50;99.90;;;;;;5054214;28;20036;-67
2022/09/15 00:24:00;;;;;;;3.67;1.80;;;16.50;99.90;;;;;;5054041;28;20500;-66
2022/09/15 00:26:28;;;;;;;7.03;2.30;;;16.40;99.90;;;;;;5054105;28;20040;-66
2022/09/15 00:28:56;;;;;;;4.38;2.20;;;16.50;99.90;;;;;;5053985;28;20053;-68
2022/09/15 00:31:23;;;;;;;6.30;3.50;;;16.50;99.90;;;;;;5053937;28;20134;-67
2022/09/15 00:33:51;;;;;;;3.95;2.60;;;16.40;99.90;;;;;;5053957;28;20049;-66
2022/09/15 00:36:19;;;;;;;3.30;2.40;;;16.20;99.90;;;;;;5053493;28;20538;-66
2022/09/15 00:38:45;;;;;;;3.40;1.92;;;16.10;99.90;;;;;;5054016;28;20086;-66
2022/09/15 00:41:13;;;;;;;4.47;2.20;;;16.20;99.90;;;;;;5054014;28;20120;-66
2022/09/15 00:43:42;;;;;;;2.95;1.83;;;16.00;99.90;;;;;;5053846;28;20087;-72
2022/09/15 00:46:08;;;;;;;3.15;1.95;;;15.80;99.90;;;;;;5053755;28;20045;-66
2022/09/15 00:48:36;;;;;;;2.33;1.70;;;15.70;99.90;;;;;;5053670;28;20044;-66
2022/09/15 00:51:03;;;;;;;3.88;2.03;;;15.80;99.90;;;;;;5053820;28;20041;-67
2022/09/15 00:53:32;;;;;;;6.28;2.33;;;15.90;99.90;;;;;;5069335;28;20071;-66
2022/09/15 00:55:59;;;;;;;8.45;3.30;;;15.90;99.90;;;;;;5053755;28;20393;-67
2022/09/15 00:58:36;;;;;;;7.85;4.00;;;16.00;99.90;;;;;;5053776;28;20036;-72
2022/09/15 01:01:06;;;;;;;3.63;2.33;;;16.00;99.90;;;;;;5053659;28;20492;-68
2022/09/15 01:03:33;;;;;;;3.42;2.05;;;15.90;99.90;;;;;;5050493;28;20060;-72
2022/09/15 01:06:06;;;;;;;4.50;1.95;;;15.70;99.90;;;;;;5037082;28;20090;-66
2022/09/15 01:09:00;;;;;;;3.10;1.67;;;15.50;99.90;;;;;;5038568;28;20041;-74
2022/09/15 01:11:26;;;;;;;6.70;2.78;;;15.60;99.90;;;;;;5052887;28;20033;-66
2022/09/15 01:13:52;;;;;;;7.03;3.42;;;15.70;99.90;;;;;;5067955;28;20090;-66
2022/09/15 01:16:31;;;;;;;7.05;3.72;;;15.70;99.90;;;;;;5049997;28;20083;-65
2022/09/15 01:19:36;;;;;;;8.43;4.25;;;15.70;99.90;;;;;;5052845;28;20076;-66
2022/09/15 01:22:16;;;;;;;5.82;4.00;;;15.60;99.90;;;;;;5009079;28;20505;-67
2022/09/15 01:24:48;;;;;;;;;;;15.60;99.90;;;;;;5009989;28;20080;-74
2022/09/15 01:27:33;;;;;;;4.93;3.20;;;15.70;99.90;;;;;;5035181;28;19908;-66
2022/09/15 01:30:08;;;;;;;6.55;3.38;;;15.80;99.90;;;;;;5052320;28;20040;-66
2022/09/15 01:33:03;;;;;;;4.57;3.20;;;15.80;99.90;;;;;;5052166;28;20044;-66
2022/09/15 01:35:47;;;;;;;8.77;3.40;;;15.70;99.90;;;;;;5053072;28;20040;-66
2022/09/15 01:38:16;;;;;;;5.03;3.35;;;15.40;99.90;;;;;;5053193;28;20128;-71
2022/09/15 01:40:54;;;;;;;3.45;2.38;;;15.20;99.90;;;;;;5053184;28;20556;-70
2022/09/15 01:43:22;;;;;;;5.20;1.95;;;15.20;99.90;;;;;;5053426;28;20049;-66
2022/09/15 01:45:50;;;;;;;2.53;1.80;;;15.30;99.90;;;;;;5053047;28;20041;-67
2022/09/15 01:48:19;;;;;;;7.32;3.25;;;15.40;99.90;;;;;;5055091;28;20044;-66
2022/09/15 01:50:50;;;;;;;7.72;3.78;;;15.60;99.90;;;;;;5056809;28;20369;-66
2022/09/15 01:53:19;;;;;;;6.35;4.10;;;15.70;99.90;;;;;;5056931;28;20106;-65
2022/09/15 01:56:07;;;;;;;8.10;4.47;;;15.70;99.90;;;;;;5056856;28;20033;-71
2022/09/15 01:58:35;;;;;;;4.65;3.05;;;15.70;99.90;;;;;;5056708;28;20111;-71
2022/09/15 02:01:11;;;;;;;7.25;2.80;;;15.70;99.90;;;;;;5056820;28;20047;-66
2022/09/15 02:03:55;;;;;;;2.88;2.20;;;15.50;99.90;;;;;;5056759;28;20136;-66
2022/09/15 02:06:39;;;;;;;2.72;2.08;;;15.20;99.90;;;;;;5056592;28;20496;-68
2022/09/15 02:09:29;;;;;;;2.97;1.92;;;15.10;99.90;;;;;;5065188;28;20407;-71
2022/09/15 02:12:46;;;;;;;5.18;1.83;;;15.00;99.90;;;;;;5076601;28;20044;-71
2022/09/15 02:15:24;;;;;;;8.05;3.20;;;15.10;99.90;;;;;;5034550;28;20033;-72
2022/09/15 02:17:54;;;;;;;7.95;2.88;;;15.10;99.90;;;;;;5056535;28;20086;-66
2022/09/15 02:20:25;;;;;;;4.80;2.60;;;15.10;99.90;;;;;;5056332;28;20090;-66
2022/09/15 02:22:59;;;;;;;5.68;2.42;;;15.00;99.90;;;;;;5056322;28;20041;-66
2022/09/15 02:25:33;;;;;;;6.38;2.65;;;15.10;99.90;;;;;;5056040;28;20036;-75
2022/09/15 02:28:04;;;;;;;6.28;2.50;;;15.00;99.90;;;;;;5056220;28;20040;-66
2022/09/15 02:30:31;;;;;;;;;;;15.20;99.90;;;;;;5056751;28;20036;-70
2022/09/15 02:33:01;;;;;;;6.30;1.80;;;15.50;99.90;;;;;;5056237;28;19916;-78
2022/09/15 02:35:28;;;;;;;4.80;1.85;;;15.80;99.90;;;;;;5056095;28;20052;-65
2022/09/15 02:37:55;;;;;;;2.17;1.30;;;16.00;99.90;;;;;;5056193;28;20381;-68
2022/09/15 02:40:22;;;;;;;2.45;1.02;;;16.20;99.90;;;;;;5056086;28;20123;-67
2022/09/15 02:43:00;;;;;;;2.65;1.10;;;16.30;99.90;;;;;;5055944;28;20508;-77
2022/09/15 02:45:28;;;;;;;3.30;1.40;;;16.30;99.90;;;;;;5056123;28;20392;-77
2022/09/15 02:47:53;;;;;;;5.70;1.77;;;16.40;99.90;;;;;;5055950;28;20055;-75
2022/09/15 02:50:19;;;;;;;7.63;1.95;;;16.40;99.90;;;;;;5055956;28;20025;-79
2022/09/15 02:52:45;;;;;;;4.43;2.15;;;16.10;99.90;;;;;;5055728;28;20037;-78
2022/09/15 02:55:11;;;;;;;3.47;1.95;;;15.60;99.90;;;;;;5055818;28;20040;-69
2022/09/15 02:57:38;;;;;;;4.57;1.83;;;15.30;99.90;;;;;;5055456;28;20056;-66
2022/09/15 03:00:14;;;;;;;5.80;2.00;;;15.30;99.90;;;;;;5054071;28;20116;-71
2022/09/15 03:02:42;;;;;;;2.20;1.45;;;15.30;99.90;;;;;;5053547;28;20126;-66
2022/09/15 03:05:09;;;;;;;4.10;1.88;;;15.30;99.90;;;;;;5055582;28;20049;-68
2022/09/15 03:07:36;;;;;;;5.25;1.30;;;15.50;99.90;;;;;;5055636;28;20045;-66
2022/09/15 03:10:07;;;;;;;3.08;1.40;;;15.60;99.90;;;;;;5055665;28;20519;-72
2022/09/15 03:12:41;;;;;;;4.30;1.40;;;15.70;99.90;;;;;;5055612;28;20075;-68
2022/09/15 03:15:08;;;;;;;3.33;1.70;;;15.80;99.90;;;;;;5055507;28;20036;-66
2022/09/15 03:17:36;;;;;;;2.92;1.73;;;15.90;99.90;;;;;;5055394;28;20040;-74
2022/09/15 03:20:03;;;;;;;3.28;1.60;;;15.90;99.90;;;;;;5054035;28;20567;-71
2022/09/15 03:22:29;;;;;;;3.17;2.10;;;15.50;99.90;;;;;;5055218;28;20052;-65
2022/09/15 03:24:55;;;;;;;5.20;1.80;;;15.50;99.90;;;;;;5055228;28;20584;-71
2022/09/15 03:27:21;;;;;;;3.70;1.90;;;15.40;99.90;;;;;;5055019;28;20200;-73
2022/09/15 03:29:47;;;;;;;1.63;1.30;;;15.40;99.90;;;;;;5055197;28;20504;-66
2022/09/15 03:32:13;;;;;;;2.63;1.30;;;15.50;99.90;;;;;;5055128;28;20140;-72
2022/09/15 03:34:38;;;;;;;2.08;1.50;;;15.60;99.90;;;;;;5055099;28;20037;-66
2022/09/15 03:37:05;;;;;;;4.07;1.42;;;15.50;99.90;;;;;;5055491;28;20434;-74
2022/09/15 03:39:31;;;;;;;2.65;1.55;;;15.50;99.90;;;;;;5053780;28;20040;-67
2022/09/15 03:41:57;;;;;;;4.80;1.38;;;15.30;99.90;;;;;;5053605;28;20052;-78
2022/09/15 03:44:23;;;;;;;2.08;1.30;;;15.30;99.90;;;;;;5053651;28;20048;-76
2022/09/15 03:46:49;;;;;;;8.20;1.55;;;15.40;99.90;;;;;;5054672;28;20049;-66
2022/09/15 03:49:16;;;;;;;2.45;1.40;;;15.50;99.90;;;;;;5054940;28;20047;-68
2022/09/15 03:51:42;;;;;;;5.28;1.30;;;15.60;99.90;;;;;;5054756;28;20048;-66
2022/09/15 03:54:07;;;;;;;6.88;1.90;;;15.70;99.90;;;;;;5054890;28;20037;-78
2022/09/15 03:56:34;;;;;;;3.40;1.48;;;15.70;99.90;;;;;;5054665;28;20048;-77
2022/09/15 03:59:01;;;;;;;4.95;1.75;;;15.40;99.90;;;;;;5054849;28;20120;-78
2022/09/15 04:01:28;;;;;;;2.50;1.50;;;15.30;99.90;;;;;;5054472;28;20036;-78
2022/09/15 04:03:54;;;;;;;7.07;1.30;;;15.30;99.90;;;;;;5054451;28;20099;-73
2022/09/15 04:06:22;;;;;;;2.88;1.27;;;15.40;99.90;;;;;;5054573;28;20044;-66
2022/09/15 04:08:49;;;;;;;5.25;1.70;;;15.40;99.90;;;;;;5054575;28;20040;-68
2022/09/15 04:11:16;;;;;;;4.32;1.88;;;15.40;99.90;;;;;;5053665;28;20041;-68
2022/09/15 04:13:43;;;;;;;2.95;1.60;;;15.40;99.90;;;;;;5054497;28;20138;-75
2022/09/15 04:16:13;;;;;;;1.85;1.20;;;15.40;99.90;;;;;;5052896;28;20043;-66
2022/09/15 04:18:39;;;;;;;2.70;1.42;;;15.50;99.90;;;;;;5054181;28;20052;-78
2022/09/15 04:21:09;;;;;;;1.55;1.10;;;15.50;99.90;;;;;;5054043;28;20091;-76
2022/09/15 04:23:35;;;;;;;3.13;1.37;;;15.50;99.90;;;;;;5054017;28;20064;-77
2022/09/15 04:26:06;;;;;;;3.35;1.15;;;15.30;99.90;;;;;;5054065;28;20045;-78
2022/09/15 04:28:36;;;;;;;2.22;1.00;;;15.20;99.90;;;;;;5054113;28;20029;-67
2022/09/15 04:31:08;;;;;;;2.45;1.20;;;15.30;99.90;;;;;;5054117;28;20047;-75
2022/09/15 04:33:35;;;;;;;2.42;1.52;;;15.30;99.90;;;;;;5054017;28;20044;-77
2022/09/15 04:36:03;;;;;;;4.68;1.30;;;15.30;99.90;;;;;;5052486;28;20049;-66
2022/09/15 04:38:30;;;;;;;6.00;1.35;;;15.40;99.90;;;;;;5054013;28;20404;-66
2022/09/15 04:40:57;;;;;;;1.90;1.20;;;15.60;99.90;;;;;;5053598;28;20521;-70
2022/09/15 04:43:24;;;;;;;6.82;1.08;;;15.80;99.90;;;;;;5053539;28;20466;-73
2022/09/15 04:45:51;;;;;;;1.02;0.88;;;15.80;99.90;;;;;;5053660;28;20107;-66
2022/09/15 04:48:16;;;;;;;3.25;1.48;;;16.00;99.90;;;;;;5053814;28;20402;-76
2022/09/15 04:50:43;;;;;;;7.35;1.58;;;15.60;99.90;;;;;;5053463;28;20063;-74
2022/09/15 04:53:08;;;;;;;1.65;0.90;;;15.40;99.90;;;;;;5053584;28;20040;-79
2022/09/15 04:55:34;;;;;;;1.77;1.15;;;15.40;99.90;;;;;;5052022;28;20187;-67
2022/09/15 04:58:04;;;;;;;4.50;1.10;;;15.50;99.90;;;;;;5049681;28;20048;-66
2022/09/15 05:00:33;;;;;;;3.75;0.90;;;15.80;99.90;;;;;;5050963;28;20044;-67
2022/09/15 05:02:59;;;;;;;3.85;1.17;;;16.00;99.90;;;;;;5052206;28;20045;-66
2022/09/15 05:05:25;;;;;;;2.90;1.13;;;16.00;99.90;;;;;;5052849;28;20438;-67
2022/09/15 05:07:51;;;;;;;3.28;1.20;;;15.90;99.90;;;;;;5052325;28;20041;-66
2022/09/15 05:10:18;;;;;;;1.10;1.00;;;16.20;99.90;;;;;;5052276;28;20111;-66
2022/09/15 05:12:44;;;;;;;3.30;1.27;;;16.10;99.90;;;;;;5052192;28;20053;-68
2022/09/15 05:15:11;;;;;;;6.25;1.55;;;16.00;99.90;;;;;;5051895;28;20029;-66
2022/09/15 05:17:37;;;;;;;2.33;1.10;;;16.00;99.90;;;;;;5049813;28;20033;-65
2022/09/15 05:20:04;;;;;;;6.72;1.48;;;16.00;99.90;;;;;;5051906;28;20500;-76
2022/09/15 05:22:30;;;;;;;4.00;1.35;;;16.10;99.90;;;;;;5053630;28;20053;-66
2022/09/15 05:24:56;;;;;;;1.63;0.90;;;16.10;99.90;;;;;;5057243;28;20041;-74
2022/09/15 05:27:22;;;;;;;1.90;1.40;;;16.10;99.90;;;;;;5054929;28;20051;-76
2022/09/15 05:29:48;;;;;;;5.45;1.23;;;16.10;99.90;;;;;;5047955;28;20124;-67
2022/09/15 05:32:14;;;;;;;2.63;1.15;;;16.00;99.90;;;;;;5034191;28;20049;-67
2022/09/15 05:34:39;;;;;;;2.78;1.52;;;16.10;99.90;;;;;;5036329;28;20083;-68
2022/09/15 05:37:05;;;;;;;2.35;1.20;;;16.20;99.90;;;;;;5053048;28;20063;-66
2022/09/15 05:39:31;;;;;;;4.60;1.35;;;16.30;99.90;;;;;;5054433;28;20040;-67
2022/09/15 05:41:58;;;;;;;2.67;1.65;;;16.40;99.90;;;;;;5055816;28;20037;-67
2022/09/15 05:44:24;;;;;;;4.57;1.25;;;16.40;99.90;;;;;;5055679;28;20065;-65
2022/09/15 05:46:51;;;;;;;6.40;2.47;;;16.60;99.90;;;;;;5055345;28;20373;-66
2022/09/15 05:49:16;;;;;;;6.75;1.38;;;16.70;99.90;;;;;;5055460;28;20047;-67
2022/09/15 05:51:42;;;;;;;4.95;1.33;;;16.80;99.90;;;;;;5055445;28;20036;-67
2022/09/15 05:54:08;;;;;;;2.30;1.02;;;16.80;99.90;;;;;;5055581;28;20163;-67
2022/09/15 05:56:34;;;;;;;5.72;1.65;;;16.70;99.90;;;;;;5055434;28;20102;-67
2022/09/15 05:59:00;;;;;;;2.50;1.13;;;16.80;99.90;;;;;;5054224;28;20435;-66
2022/09/15 06:01:28;;;;;;;1.48;1.00;;;16.80;99.90;;;;;;5055263;28;20048;-66
2022/09/15 06:03:55;;;;;;;3.95;1.65;;;16.80;99.90;;;;;;5055229;28;20057;-66
2022/09/15 06:06:22;;;;;;;8.32;1.65;;;16.70;99.90;;;;;;5054000;28;20407;-66
2022/09/15 06:08:54;;;;;;;2.05;1.00;;;16.50;99.90;;;;;;5055732;28;20527;-65
2022/09/15 06:11:22;;;;;;;2.95;1.50;;;16.50;99.90;;;;;;5054992;28;20484;-66
2022/09/15 06:13:49;;;;;;;1.27;0.93;;;16.60;99.90;;;;;;5054747;28;20053;-66
2022/09/15 06:16:20;;;;;;;2.75;1.40;;;16.70;99.90;;;;;;5056102;28;20045;-66
2022/09/15 06:18:48;;;;;;;3.72;1.38;;;17.10;99.90;;;;;;5056076;28;20049;-66
2022/09/15 06:21:17;;;;;;;3.45;1.33;;;17.20;99.90;;;;;;5055221;28;20041;-69
2022/09/15 06:23:43;;;;;;;2.92;1.75;;;17.50;99.90;;;;;;5056364;28;20049;-66
2022/09/15 06:26:15;;;;;;;4.88;1.48;;;17.70;99.90;;;;;;5054542;28;20048;-68
2022/09/15 06:28:50;;;;;;;3.70;1.55;;;18.20;99.90;;;;;;5056568;28;20071;-67
2022/09/15 06:31:17;;;;;;;2.50;1.42;;;18.80;99.90;;;;;;5055063;28;20098;-66
2022/09/15 06:33:51;;;;;;;2.88;1.58;;;18.80;99.90;;;;;;5055444;28;20040;-66
2022/09/15 06:36:19;;;;;;;3.42;1.45;;;18.70;99.90;;;;;;5056128;28;20045;-66
2022/09/15 06:38:46;;;;;;;6.22;1.48;;;18.50;99.90;;;;;;5056167;28;20423;-78
2022/09/15 06:41:12;;;;;;;3.65;1.60;;;18.40;99.90;;;;;;5056116;28;20045;-66
2022/09/15 06:43:39;;;;;;;2.05;1.40;;;18.40;99.90;;;;;;5056084;28;20052;-66
2022/09/15 06:46:13;;;;;;;3.03;1.10;;;18.20;99.90;;;;;;5056027;28;20120;-66
2022/09/15 06:48:40;;;;;;;4.03;1.50;;;18.30;99.90;;;;;;5056085;28;20056;-68
2022/09/15 06:51:09;;;;;;;2.47;1.73;;;18.30;99.90;;;;;;5054321;28;20575;-75
2022/09/15 06:53:39;;;;;;;2.50;1.35;;;18.20;99.90;;;;;;5056054;28;20118;-66
2022/09/15 06:56:09;;;;;;;2.00;1.48;;;18.30;99.90;;;;;;5056002;28;20037;-77
2022/09/15 06:58:37;;;;;;;4.93;1.27;;;18.20;99.90;;;;;;5054568;28;20136;-67
2022/09/15 07:01:09;;;;;;;3.25;1.88;;;18.30;99.90;;;;;;5055872;28;20047;-76
2022/09/15 07:03:35;;;;;;;3.95;1.70;;;18.30;99.90;;;;;;5055513;28;20060;-66
2022/09/15 07:06:02;;;;;;;2.45;1.17;;;18.30;99.90;;;;;;5055733;28;20072;-65
2022/09/15 07:08:29;;;;;;;3.00;1.10;;;18.20;99.90;;;;;;5055814;28;20045;-66
2022/09/15 07:10:55;;;;;;;1.73;1.05;;;18.10;99.90;;;;;;5055599;28;20112;-66
2022/09/15 07:13:22;;;;;;;4.05;1.30;;;18.00;99.90;;;;;;5055649;28;20045;-66
2022/09/15 07:15:53;;;;;;;4.28;1.33;;;18.00;99.90;;;;;;5055665;28;20516;-77
2022/09/15 07:18:19;;;;;;;1.90;1.15;;;17.90;99.90;;;;;;5055697;28;20128;-67
2022/09/15 07:20:45;;;;;;;3.53;1.15;;;17.80;99.90;;;;;;5055488;28;20080;-67
2022/09/15 07:23:11;;;;;;;4.13;1.20;;;17.80;99.90;;;;;;5055178;28;20493;-65
2022/09/15 07:25:37;;;;;;;9.20;1.30;;;17.70;99.90;;;;;;5055144;28;20120;-66
2022/09/15 07:28:02;;;;;;;3.53;1.45;;;17.80;99.90;;;;;;5055483;28;20045;-72
2022/09/15 07:30:28;;;;;;;3.03;1.02;;;17.70;99.90;;;;;;5055274;28;20045;-65
2022/09/15 07:32:54;;;;;;;2.92;1.45;;;17.80;99.90;;;;;;5055085;28;20493;-75
2022/09/15 07:35:20;;;;;;;1.75;1.17;;;17.80;99.90;;;;;;5054887;28;20063;-66
2022/09/15 07:37:50;;;;;;;5.10;1.45;;;17.90;99.90;;;;;;5055104;28;20127;-66
2022/09/15 07:40:16;;;;;;;1.80;1.38;;;18.00;99.90;;;;;;5053717;28;20404;-66
2022/09/15 07:42:43;;;;;;;2.35;1.20;;;18.10;99.90;;;;;;5054732;28;20059;-76
2022/09/15 07:45:10;;;;;;;2.17;1.25;;;18.10;99.90;;;;;;5054863;28;20041;-69
2022/09/15 07:47:36;;;;;;;4.03;1.40;;;18.20;99.90;;;;;;5070373;28;20051;-66
2022/09/15 07:50:04;;;;;;;2.83;1.23;;;18.20;99.90;;;;;;5055041;28;20493;-73
2022/09/15 07:52:30;;;;;;;2.60;1.40;;;18.30;99.90;;;;;;5054791;28;20417;-65
2022/09/15 07:54:56;;;;;;;1.48;1.02;;;18.40;99.90;;;;;;5053794;28;20083;-65
2022/09/15 07:57:22;;;;;;;3.80;1.13;;;18.50;99.90;;;;;;5054622;28;20033;-75
2022/09/15 07:59:48;;;;;;;2.10;1.20;;;18.60;99.90;;;;;;5054594;28;20099;-65
2022/09/15 08:02:19;;;;;;;6.18;1.48;;;18.50;99.90;;;;;;5054523;28;20060;-65
2022/09/15 08:04:45;;;;;;;4.57;1.50;;;18.60;99.90;;;;;;5054541;28;20370;-76
2022/09/15 08:07:11;;;;;;;3.60;1.05;;;18.50;99.90;;;;;;5054418;28;20079;-66
2022/09/15 08:09:38;;;;;;;9.55;1.67;;;18.60;99.90;;;;;;5054582;28;20520;-65
2022/09/15 08:12:06;;;;;;;3.20;1.45;;;18.60;99.90;;;;;;5054395;28;20412;-66
2022/09/15 08:14:32;;;;;;;4.65;1.55;;;18.60;99.90;;;;;;5054421;28;20404;-66
2022/09/15 08:17:00;;;;;;;2.58;1.40;;;18.70;99.90;;;;;;5053035;28;20110;-67
2022/09/15 08:19:29;;;;;;;1.85;1.13;;;18.80;99.90;;;;;;5054387;28;20048;-65
2022/09/15 08:21:55;;;;;;;2.63;1.52;;;18.80;99.90;;;;;;5054222;28;20041;-65
2022/09/15 08:24:22;;;;;;;2.42;1.05;;;18.90;99.90;;;;;;5054115;28;20396;-76
2022/09/15 08:26:51;;;;;;;2.47;1.50;;;18.90;99.90;;;;;;5054178;28;20032;-66
2022/09/15 08:29:17;;;;;;;3.95;1.50;;;18.90;99.90;;;;;;5054146;28;20048;-66
2022/09/15 08:31:44;;;;;;;2.28;1.30;;;18.80;99.90;;;;;;5054244;28;20070;-72
2022/09/15 08:34:12;;;;;;;2.63;1.48;;;19.00;99.90;;;;;;5053995;28;20112;-65
2022/09/15 08:36:38;;;;;;;2.38;1.40;;;19.10;99.90;;;;;;5054006;28;20512;-66
2022/09/15 08:39:05;;;;;;;3.75;1.95;;;19.10;99.90;;;;;;5053938;28;20112;-65
2022/09/15 08:41:36;;;;;;;3.90;1.52;;;19.20;99.90;;;;;;5054004;28;20053;-66
2022/09/15 08:44:19;;;;;;;3.75;1.40;;;19.20;99.90;;;;;;5053959;28;20040;-67
2022/09/15 08:47:03;;;;;;;3.33;1.83;;;19.30;99.90;;;;;;5053867;28;20136;-65
2022/09/15 08:49:29;;;;;;;9.93;1.65;;;19.20;99.90;;;;;;5053397;28;20041;-73
2022/09/15 08:51:59;;;;;;;2.15;1.50;;;19.20;99.90;;;;;;5053834;28;20040;-65
2022/09/15 08:54:26;;;;;;;;;;;19.20;99.90;;;;;;5053013;28;20040;-76
2022/09/15 08:56:54;;;;;;;7.45;1.90;;;19.20;99.90;;;;;;5053486;28;19908;-65
2022/09/15 08:59:21;;;;;;;2.72;1.17;;;19.30;99.90;;;;;;5053680;28;20068;-65
2022/09/15 09:02:05;;;;;;;5.72;1.45;;;19.40;99.90;;;;;;5053996;28;20070;-70
2022/09/15 09:05:10;;;;;;;4.20;1.38;;;19.30;99.90;;;;;;5053821;28;20080;-66
2022/09/15 09:08:00;;;;;;;4.35;1.67;;;19.30;99.90;;;;;;5032558;28;20059;-65
2022/09/15 09:10:40;;;;;;;6.50;1.63;;;19.30;99.90;;;;;;5053847;28;20028;-66
2022/09/15 09:13:25;;;;;;;4.70;1.70;;;;;;;;;;5053771;28;20128;-65
2022/09/15 09:15:53;;;;;;;3.78;1.90;;;19.50;99.90;;;;;;5053716;28;20041;-66
2022/09/15 09:18:45;;;;;;;4.30;2.00;;;19.40;99.90;;;;;;5053750;28;20037;-65
2022/09/15 09:21:11;;;;;;;2.80;1.23;;;19.50;99.90;;;;;;5053643;28;20472;-70
2022/09/15 09:23:53;;;;;;;6.18;1.70;;;19.50;99.90;;;;;;5053671;28;20045;-65
2022/09/15 09:26:19;;;;;;;6.30;1.90;;;;;;;;;;5053553;28;20401;-65
2022/09/15 09:28:56;;;;;;;4.43;1.98;;;19.70;99.90;;;;;;5053565;28;20060;-67
2022/09/15 09:31:24;;;;;;;5.78;1.80;;;19.70;99.90;;;;;;5053535;28;20518;-65
2022/09/15 09:34:05;;;;;;;2.42;1.35;;;19.90;99.90;;;;;;5050406;28;20435;-65
2022/09/15 09:36:32;;;;;;;5.50;1.95;;;20.00;99.90;;;;;;5032104;28;20049;-65
2022/09/15 09:39:00;;;;;;;16.42;2.35;;;20.10;99.90;;;;;;5033019;28;20052;-65
2022/09/15 09:41:34;;;;;;;2.45;1.17;;;20.30;99.90;;;;;;5032056;28;20050;-66
2022/09/15 09:44:09;;;;;;;2.42;1.40;;;20.30;99.90;;;;;;5032012;28;20099;-65
2022/09/15 09:46:38;;;;;;;2.92;1.60;;;20.60;99.90;;;;;;5032336;28;20057;-66
2022/09/15 09:49:19;;;;;;;4.68;2.05;;;20.60;99.90;;;;;;5030399;28;20512;-65
2022/09/15 09:51:58;;;;;;;1.98;1.38;;;20.60;99.90;;;;;;5031694;28;20144;-65
2022/09/15 09:54:31;;;;;;;3.00;1.60;;;20.70;99.90;;;;;;5031511;28;20043;-65
2022/09/15 09:57:12;;;;;;;5.63;1.58;;;21.00;99.90;;;;;;5030186;28;20509;-66
2022/09/15 09:59:47;;;;;;;5.68;1.70;;;21.10;99.90;;;;;;5031301;28;20478;-66
2022/09/15 10:02:16;;;;;;;2.78;1.55;;;21.30;99.90;;;;;;5032848;28;20057;-65
2022/09/15 10:05:05;;;;;;;5.90;1.85;;;21.10;99.90;;;;;;5031540;28;20046;-65
2022/09/15 10:07:39;;;;;;;3.20;1.33;;;21.00;99.90;;;;;;5023549;28;20048;-65
2022/09/15 10:10:06;;;;;;;2.38;1.15;;;20.90;99.90;;;;;;5034939;28;20049;-65
2022/09/15 10:12:41;;;;;;;3.72;1.63;;;20.90;99.90;;;;;;5033056;28;20033;-66
2022/09/15 10:15:30;;;;;;;2.65;1.40;;;20.90;99.90;;;;;;5035032;28;20136;-66
2022/09/15 10:17:59;;;;;;;3.03;1.75;;;20.90;99.90;;;;;;5034299;28;20037;-65
2022/09/15 10:20:32;;;;;;;2.67;1.50;;;20.90;99.90;;;;;;5034605;28;20103;-65
2022/09/15 10:23:05;;;;;;;3.63;1.33;;;20.90;99.90;;;;;;5034392;28;20041;-65
2022/09/15 10:25:34;;;;;;;3.65;1.60;;;21.00;99.90;;;;;;5034325;28;20063;-65
2022/09/15 10:28:22;;;;;;;2.13;1.17;;;21.20;99.90;;;;;;5035381;28;20148;-65
2022/09/15 10:30:59;;;;;;;2.25;1.20;;;21.30;99.90;;;;;;5034798;28;20392;-66
2022/09/15 10:33:30;;;;;;;3.20;1.50;;;21.30;99.90;;;;;;5035016;28;20526;-65
2022/09/15 10:36:04;;;;;;;2.35;1.27;;;21.40;99.90;;;;;;5035651;28;20033;-66
2022/09/15 10:38:40;;;;;;;3.30;1.38;;;21.40;99.90;;;;;;5034519;28;20045;-66
2022/09/15 10:41:26;;;;;;;3.55;1.35;;;21.30;99.90;;;;;;5034409;28;20045;-66
2022/09/15 10:44:01;;;;;;;3.50;1.70;;;21.20;99.90;;;;;;5034115;28;20045;-66
2022/09/15 10:46:40;;;;;;;3.72;1.48;;;21.10;99.90;;;;;;5032923;28;20045;-66
2022/09/15 10:49:24;;;;;;;4.05;1.92;;;21.10;99.90;;;;;;5034238;28;20128;-65
2022/09/15 10:52:12;;;;;;;2.65;1.38;;;20.90;99.90;;;;;;5034107;28;20402;-66
2022/09/15 10:54:40;;;;;;;6.57;1.58;;;20.80;99.90;;;;;;5034570;28;20041;-65
2022/09/15 10:57:32;;;;;;;4.50;1.60;;;20.90;99.90;;;;;;5034181;28;20041;-66
2022/09/15 11:00:19;;;;;;;4.28;1.75;;;21.20;99.90;;;;;;5033910;28;20051;-66
2022/09/15 11:02:48;;;;;;;3.38;1.40;;;21.50;99.90;;;;;;5032516;28;20382;-65
2022/09/15 11:05:43;;;;;;;3.22;1.30;;;21.60;99.90;;;;;;5032292;28;20119;-65
2022/09/15 11:08:35;;;;;;;2.60;1.65;;;21.50;99.90;;;;;;5022966;28;20029;-65
2022/09/15 11:11:31;;;;;;;3.42;1.90;;;21.70;99.90;;;;;;5034113;28;20175;-66
2022/09/15 11:14:16;;;;;;;1.90;1.20;;;21.80;99.90;;;;;;5034430;28;20054;-65
2022/09/15 11:17:01;;;;;;;2.10;1.35;;;22.10;99.90;;;;;;5033749;28;20084;-65
2022/09/15 11:19:46;;;;;;;5.00;1.65;;;22.10;99.90;;;;;;5033399;28;20034;-65
2022/09/15 11:22:18;;;;;;;4.82;1.50;;;22.30;99.90;;;;;;5033382;28;20041;-65
2022/09/15 11:25:05;;;;;;;3.50;1.42;;;21.90;99.90;;;;;;5042121;28;20053;-66
2022/09/15 11:27:36;;;;;;;4.55;1.30;;;22.20;99.90;;;;;;5053306;28;20068;-76
2022/09/15 11:30:20;;;;;;;2.20;1.30;;;22.40;99.90;;;;;;5054948;28;20110;-66
2022/09/15 11:32:56;;;;;;;2.55;1.30;;;22.80;99.90;;;;;;5070641;28;20044;-65
2022/09/15 11:35:33;;;;;;;3.75;1.38;;;22.60;99.90;;;;;;5055230;28;20068;-66
2022/09/15 11:38:13;;;;;;;2.25;1.35;;;22.50;99.90;;;;;;5055259;28;20089;-65
2022/09/15 11:40:49;;;;;;;3.63;1.45;;;22.50;99.90;;;;;;5055428;28;20382;-77
2022/09/15 11:43:31;;;;;;;1.75;0.93;;;22.80;99.90;;;;;;5054870;28;20530;-77
2022/09/15 11:45:59;;;;;;;2.22;1.20;;;23.00;99.90;;;;;;5054818;28;20116;-65
2022/09/15 11:48:31;;;;;;;3.20;1.30;;;23.00;99.90;;;;;;5053503;28;20083;-66
2022/09/15 11:51:01;;;;;;;1.40;0.90;;;23.00;99.90;;;;;;5054743;28;20116;-65
2022/09/15 11:53:34;;;;;;;6.13;1.00;;;23.10;99.90;;;;;;5054872;28;20041;-77
2022/09/15 11:56:14;;;;;;;2.75;1.00;;;23.00;99.90;;;;;;5054857;28;20047;-66
2022/09/15 11:59:00;;;;;;;1.13;0.93;;;23.10;99.90;;;;;;5054564;28;20044;-66
2022/09/15 12:01:52;;;;;;;2.95;0.98;;;23.50;99.90;;;;;;5054554;28;20392;-66
2022/09/15 12:04:30;;;;;;;2.42;0.90;;;23.90;99.90;;;;;;5054350;28;20049;-68
2022/09/15 12:07:27;;;;;;;2.35;1.20;;;24.10;99.90;;;;;;5054332;28;20040;-66
2022/09/15 12:09:54;;;;;;;1.60;0.80;;;23.90;99.90;;;;;;5054556;28;20044;-66
2022/09/15 12:12:21;;;;;;;2.22;0.63;;;23.90;99.90;;;;;;5054545;28;20036;-65
2022/09/15 12:14:48;;;;;;;2.28;0.80;;;;;;;;;;5053194;28;20098;-72
2022/09/15 12:17:32;;;;;;;2.80;0.80;;;24.20;99.90;;;;;;5054409;28;20040;-71
2022/09/15 12:20:16;;;;;;;3.90;1.08;;;23.80;99.90;;;;;;5054494;28;20041;-68
2022/09/15 12:22:59;;;;;;;1.10;0.77;;;23.40;99.90;;;;;;5054303;28;20079;-73
2022/09/15 12:26:13;;;;;;;2.30;1.00;;;23.00;99.90;;;;;;5052913;28;20068;-65
2022/09/15 12:28:50;;;;;;;1.10;0.50;;;22.60;99.90;;;;;;5050831;28;20037;-66
2022/09/15 12:31:22;;;;;;;3.97;0.85;;;21.80;99.90;;;;;;5053705;28;20048;-67
2022/09/15 12:34:25;;;;;;;0.95;0.40;;;21.00;99.90;;;;;;5052883;28;20068;-80
2022/09/15 12:37:06;;;;;;;3.67;0.98;;;20.20;99.90;;;;;;5054153;28;20048;-75
2022/09/15 12:39:45;;;;;;;5.00;1.27;;;19.90;99.90;;;;;;5054139;28;20490;-72
2022/09/15 12:42:30;;;;;;;3.30;1.00;;;19.90;99.90;;;;;;5054304;28;20151;-68
2022/09/15 12:45:00;;;;;;;2.83;0.80;;;19.70;99.90;;;;;;5053604;28;20500;-66
2022/09/15 12:47:32;;;;;;;1.33;0.77;;;19.60;99.90;;;;;;5054001;28;20098;-80
2022/09/15 12:50:07;;;;;;;2.88;0.80;;;19.70;99.90;;;;;;5053989;28;20041;-76
2022/09/15 12:52:47;;;;;;;2.30;0.80;;;19.70;99.90;;;;;;5053786;28;20496;-67
2022/09/15 12:55:27;;;;;;;3.25;0.80;;;19.80;99.90;;;;;;5052580;28;20455;-67
2022/09/15 12:57:57;;;;;;;1.40;0.60;;;19.80;99.90;;;;;;5053084;28;20137;-66
2022/09/15 13:00:34;;;;;;;1.20;0.52;;;19.60;99.90;;;;;;5053978;28;20045;-67
2022/09/15 13:03:02;;;;;;;0.98;0.70;;;19.70;99.90;;;;;;5054058;28;20516;-66
2022/09/15 13:05:44;;;;;;;2.65;0.68;;;19.80;99.90;;;;;;5053978;28;20041;-66
2022/09/15 13:08:10;;;;;;;6.18;0.60;;;20.00;99.90;;;;;;5053777;28;20086;-66
2022/09/15 13:10:42;;;;;;;1.38;0.63;;;19.90;99.90;;;;;;5053790;28;20115;-66
2022/09/15 13:13:16;;;;;;;4.28;0.60;;;20.00;99.90;;;;;;5053783;28;20392;-66